createdAt,value
2023-02-25T00:02:46.720Z,22.70
2023-02-25T00:07:49.418Z,22.33
2023-02-25T00:12:52.143Z,23.55
2023-02-25T00:17:55.429Z,24.23
2023-02-25T00:22:57.985Z,23.35
2023-02-25T00:28:00.582Z,23.10
2023-02-25T00:33:03.286Z,20.65
2023-02-25T00:38:15.808Z,23.73
2023-02-25T00:43:21.292Z,22.30
2023-02-25T00:48:23.966Z,23.55
2023-02-25T00:53:27.838Z,22.67
2023-02-25T00:58:30.433Z,21.17
2023-02-25T01:03:33.360Z,22.85
2023-02-25T01:08:36.656Z,25.05
2023-02-25T01:13:39.377Z,21.52
2023-02-25T01:18:43.209Z,21.45
2023-02-25T01:23:48.508Z,22.08
2023-02-25T01:28:51.196Z,23.60
2023-02-25T01:33:53.819Z,20.42
2023-02-25T01:38:56.911Z,20.60
2023-02-25T01:44:58.011Z,22.63
2023-02-25T01:50:00.698Z,19.30
2023-02-25T01:55:06.129Z,19.85
2023-02-25T02:00:18.693Z,20.08
2023-02-25T02:05:25.618Z,17.92
2023-02-25T02:10:28.323Z,19.02
2023-02-25T02:15:35.760Z,20.23
2023-02-25T02:20:38.435Z,19.48
2023-02-25T02:26:23.083Z,19.55
2023-02-25T02:31:50.903Z,22.67
2023-02-25T02:37:02.535Z,22.00
2023-02-25T02:42:31.518Z,20.52
2023-02-25T02:47:41.215Z,21.75
2023-02-25T02:52:50.000Z,18.95
2023-02-25T02:58:01.814Z,17.38
2023-02-25T03:03:13.570Z,18.77
2023-02-25T03:08:22.813Z,18.00
2023-02-25T03:13:25.602Z,19.23
2023-02-25T03:18:39.128Z,18.42
2023-02-25T03:23:46.538Z,19.48
2023-02-25T03:28:49.250Z,18.00
2023-02-25T03:33:55.002Z,17.92
2023-02-25T03:39:06.897Z,19.05
2023-02-25T03:44:15.052Z,17.05
2023-02-25T03:49:26.891Z,20.02
2023-02-25T03:54:30.010Z,16.83
2023-02-25T03:59:32.851Z,18.67
2023-02-25T04:04:35.546Z,16.40
2023-02-25T04:09:39.897Z,15.98
2023-02-25T04:14:43.304Z,18.42
2023-02-25T04:19:45.985Z,16.85
2023-02-25T04:24:49.097Z,16.33
2023-02-25T04:29:51.819Z,15.50
2023-02-25T04:34:54.426Z,20.38
2023-02-25T04:39:57.388Z,17.05
2023-02-25T04:45:00.949Z,17.08
2023-02-25T04:50:05.150Z,17.25
2023-02-25T04:55:09.985Z,16.83
2023-02-25T05:00:17.135Z,17.23
2023-02-25T05:05:19.981Z,16.15
2023-02-25T05:10:22.700Z,16.63
2023-02-25T05:15:25.597Z,14.88
2023-02-25T05:20:29.314Z,14.52
2023-02-25T05:25:33.863Z,15.90
2023-02-25T05:30:38.230Z,18.33
2023-02-25T05:35:41.061Z,16.55
2023-02-25T05:40:43.705Z,17.20
2023-02-25T05:45:54.270Z,19.27
2023-02-25T05:51:06.594Z,14.65
2023-02-25T05:56:13.107Z,14.57
2023-02-25T06:01:19.117Z,15.23
2023-02-25T06:06:25.338Z,14.93
2023-02-25T06:11:30.858Z,14.20
2023-02-25T06:16:33.627Z,13.15
2023-02-25T06:21:36.414Z,13.18
2023-02-25T06:26:42.017Z,16.23
2023-02-25T06:31:44.808Z,13.25
2023-02-25T06:36:47.445Z,12.60
2023-02-25T06:41:50.001Z,13.02
2023-02-25T06:46:55.966Z,13.68
2023-02-25T06:51:58.802Z,12.45
2023-02-25T06:57:01.498Z,12.45
2023-02-25T07:02:04.405Z,12.50
2023-02-25T07:07:07.252Z,15.40
2023-02-25T07:12:09.824Z,12.10
2023-02-25T07:17:12.504Z,18.45
2023-02-25T07:22:17.107Z,19.27
2023-02-25T07:27:19.787Z,13.07
2023-02-25T07:32:25.058Z,13.07
2023-02-25T07:37:27.822Z,12.75
2023-02-25T07:42:31.070Z,13.00
2023-02-25T07:47:35.650Z,17.42
2023-02-25T07:52:38.649Z,12.93
2023-02-25T07:57:41.397Z,11.23
2023-02-25T08:02:44.837Z,12.70
2023-02-25T08:07:47.984Z,13.82
2023-02-25T08:12:50.635Z,15.52
2023-02-25T08:17:55.991Z,16.42
2023-02-25T08:22:59.161Z,12.05
2023-02-25T08:28:01.915Z,14.77
2023-02-25T08:33:04.706Z,10.55
2023-02-25T08:38:07.569Z,8.90
2023-02-25T08:43:10.979Z,11.27
2023-02-25T08:48:13.776Z,8.65
2023-02-25T08:53:16.572Z,16.42
2023-02-25T08:58:19.141Z,7.63
2023-02-25T09:03:21.998Z,10.25
2023-02-25T09:08:24.722Z,12.55
2023-02-25T09:13:27.431Z,9.32
2023-02-25T09:18:32.191Z,11.95
2023-02-25T09:23:34.871Z,13.43
2023-02-25T09:28:37.496Z,9.88
2023-02-25T09:33:42.011Z,10.38
2023-02-25T09:38:46.412Z,12.40
2023-02-25T09:43:53.897Z,10.80
2023-02-25T09:49:21.612Z,8.25
2023-02-25T09:54:30.883Z,11.43
2023-02-25T09:59:33.956Z,7.20
2023-02-25T10:04:46.867Z,9.25
2023-02-25T10:10:06.659Z,10.23
2023-02-25T10:15:19.364Z,8.32
2023-02-25T10:20:43.868Z,9.85
2023-02-25T10:26:04.635Z,10.27
2023-02-25T10:31:13.055Z,6.45
2023-02-25T10:36:39.749Z,8.57
2023-02-25T10:41:42.465Z,5.60
2023-02-25T10:46:44.986Z,7.40
2023-02-25T10:52:10.407Z,7.47
2023-02-25T10:57:22.851Z,8.98
2023-02-25T11:02:30.426Z,6.72
2023-02-25T11:07:36.406Z,8.77
2023-02-25T11:12:45.953Z,6.78
2023-02-25T11:17:48.724Z,5.43
2023-02-25T11:22:56.819Z,5.57
2023-02-25T11:27:59.978Z,5.68
2023-02-25T11:33:09.815Z,8.88
2023-02-25T11:38:36.461Z,8.20
2023-02-25T11:43:42.494Z,6.20
2023-02-25T11:49:24.021Z,6.07
2023-02-25T11:54:41.827Z,6.07
2023-02-25T11:59:52.907Z,5.63
2023-02-25T12:05:13.890Z,6.73
2023-02-25T12:10:43.162Z,7.10
2023-02-25T12:16:16.439Z,5.75
2023-02-25T12:21:28.158Z,4.70
2023-02-25T12:27:01.943Z,6.72
2023-02-25T12:32:32.597Z,7.07
2023-02-25T12:37:43.927Z,4.55
2023-02-25T12:43:03.505Z,6.63
2023-02-25T12:48:44.328Z,6.55
2023-02-25T12:54:19.027Z,8.55
2023-02-25T12:59:41.992Z,7.10
2023-02-25T13:05:13.388Z,9.55
2023-02-25T13:10:29.216Z,5.15
2023-02-25T13:15:58.306Z,5.88
2023-02-25T13:21:42.564Z,9.43
2023-02-25T13:27:19.977Z,7.97
2023-02-25T13:32:46.240Z,7.05
2023-02-25T13:37:57.976Z,7.78
2023-02-25T13:43:25.770Z,9.95
2023-02-25T13:48:57.356Z,8.25
2023-02-25T13:54:25.387Z,6.10
2023-02-25T14:00:09.290Z,11.25
2023-02-25T14:05:54.647Z,8.27
2023-02-25T14:11:13.564Z,10.98
2023-02-25T14:16:16.078Z,12.50
2023-02-25T14:21:36.550Z,8.23
2023-02-25T14:26:53.747Z,12.30
2023-02-25T14:32:15.245Z,12.07
2023-02-25T14:37:36.147Z,11.10
2023-02-25T14:43:06.802Z,16.85
2023-02-25T14:48:41.714Z,12.00
2023-02-25T14:53:59.477Z,12.85
2023-02-25T14:59:35.787Z,11.80
2023-02-25T15:05:16.602Z,14.70
2023-02-25T15:10:37.481Z,14.20
2023-02-25T15:16:21.871Z,15.80
2023-02-25T15:21:44.167Z,13.63
2023-02-25T15:26:48.773Z,16.65
2023-02-25T15:32:30.167Z,18.40
2023-02-25T15:37:38.967Z,18.00
2023-02-25T15:42:48.258Z,15.75
2023-02-25T15:47:51.102Z,18.30
2023-02-25T15:53:00.330Z,17.08
2023-02-25T15:58:24.676Z,21.40
2023-02-25T16:03:36.261Z,21.88
2023-02-25T16:08:52.063Z,19.08
2023-02-25T16:13:55.308Z,21.73
2023-02-25T16:19:00.433Z,21.17
2023-02-25T16:24:08.234Z,23.88
2023-02-25T16:29:43.207Z,20.80
2023-02-25T16:34:54.686Z,22.05
2023-02-25T16:39:58.604Z,21.88
2023-02-25T16:45:04.729Z,24.00
2023-02-25T16:50:22.315Z,25.92
2023-02-25T16:55:32.271Z,23.63
2023-02-25T17:00:36.635Z,23.13
2023-02-25T17:05:39.488Z,24.95
2023-02-25T17:10:48.622Z,27.58
2023-02-25T17:15:52.844Z,25.30
2023-02-25T17:21:02.725Z,30.58
2023-02-25T17:26:06.109Z,24.38
2023-02-25T17:31:15.675Z,25.17
2023-02-25T17:36:23.932Z,24.90
2023-02-25T17:41:27.645Z,24.70
2023-02-25T17:46:38.224Z,28.95
2023-02-25T17:51:41.088Z,24.10
2023-02-25T17:56:43.756Z,26.17
2023-02-25T18:01:49.317Z,27.83
2023-02-25T18:06:53.649Z,28.80
2023-02-25T18:11:58.127Z,29.38
2023-02-25T18:17:01.474Z,29.70
2023-02-25T18:22:06.212Z,28.27
2023-02-25T18:27:37.933Z,30.38
2023-02-25T18:32:40.792Z,31.25
2023-02-25T18:37:46.260Z,32.60
2023-02-25T18:42:48.969Z,35.97
2023-02-25T18:47:52.853Z,40.55
2023-02-25T18:52:56.050Z,39.63
2023-02-25T18:57:59.042Z,44.15
2023-02-25T19:03:04.203Z,42.97
2023-02-25T19:08:14.979Z,43.22
2023-02-25T19:13:40.601Z,38.25
2023-02-25T19:18:43.578Z,44.72
2023-02-25T19:23:46.961Z,43.10
2023-02-25T19:28:49.597Z,41.08
2023-02-25T19:33:52.258Z,42.17
2023-02-25T19:38:54.931Z,40.75
2023-02-25T19:43:57.616Z,37.70
2023-02-25T19:49:00.266Z,37.53
2023-02-25T19:54:03.613Z,34.00
2023-02-25T19:59:08.451Z,38.00
2023-02-25T20:04:11.743Z,34.53
2023-02-25T20:09:14.676Z,35.35
2023-02-25T20:14:18.187Z,41.28
2023-02-25T20:19:22.962Z,39.63
2023-02-25T20:24:26.224Z,38.85
2023-02-25T20:29:29.567Z,35.28
2023-02-25T20:34:32.727Z,39.00
2023-02-25T20:39:38.356Z,36.90
2023-02-25T20:44:41.695Z,35.45
2023-02-25T20:49:44.836Z,33.60
2023-02-25T20:54:49.936Z,31.55
2023-02-25T20:59:54.287Z,28.38
2023-02-25T21:04:56.970Z,34.67
2023-02-25T21:09:59.661Z,31.23
2023-02-25T21:15:06.586Z,26.75
2023-02-25T21:20:11.571Z,32.42
2023-02-25T21:25:15.280Z,30.13
2023-02-25T21:30:18.646Z,29.20
2023-02-25T21:35:25.361Z,26.15
2023-02-25T21:40:28.743Z,29.80
2023-02-25T21:45:31.944Z,26.90
2023-02-25T21:50:34.619Z,24.20
2023-02-25T21:55:37.417Z,25.75
2023-02-25T22:00:40.788Z,26.20
2023-02-25T22:05:47.417Z,22.73
2023-02-25T22:10:50.730Z,25.00
2023-02-25T22:15:53.957Z,24.70
2023-02-25T22:21:09.997Z,24.38
2023-02-25T22:26:15.979Z,26.58
2023-02-25T22:31:19.222Z,28.95
2023-02-25T22:36:23.461Z,22.75
2023-02-25T22:41:28.762Z,23.67
2023-02-25T22:46:36.402Z,24.10
2023-02-25T22:51:42.939Z,25.17
2023-02-25T22:56:47.152Z,25.98
2023-02-25T23:01:50.388Z,26.70
2023-02-25T23:06:55.824Z,31.05
2023-02-25T23:11:59.996Z,33.65
2023-02-25T23:17:02.843Z,35.13
2023-02-25T23:22:06.063Z,34.60
2023-02-25T23:27:09.130Z,42.45
2023-02-25T23:32:12.213Z,45.47
2023-02-25T23:37:16.127Z,44.35
2023-02-25T23:42:19.098Z,45.15
2023-02-25T23:47:22.110Z,46.25
2023-02-25T23:52:24.893Z,42.22
2023-02-25T23:57:28.115Z,41.38
